createdAt,value
2019-03-03T00:01:02.277Z,5.27
2019-03-03T00:03:28.742Z,5.25
2019-03-03T00:05:55.277Z,5.39
2019-03-03T00:08:21.812Z,5.22
2019-03-03T00:10:48.245Z,5.18
2019-03-03T00:13:14.680Z,5.22
2019-03-03T00:15:41.215Z,4.28
2019-03-03T00:18:07.853Z,4.74
2019-03-03T00:20:34.594Z,4.86
2019-03-03T00:23:01.130Z,5.05
2019-03-03T00:25:27.770Z,4.97
2019-03-03T00:27:54.204Z,4.90
2019-03-03T00:30:20.840Z,5.00
2019-03-03T00:32:47.377Z,5.16
2019-03-03T00:35:14.035Z,4.96
2019-03-03T00:37:51.408Z,5.10
2019-03-03T00:40:25.727Z,5.02
2019-03-03T00:42:54.002Z,5.16
2019-03-03T00:45:31.289Z,5.17
2019-03-03T00:48:08.857Z,5.16
2019-03-03T00:50:37.170Z,5.12
2019-03-03T00:53:08.385Z,4.94
2019-03-03T00:55:36.686Z,5.08
2019-03-03T00:58:05.475Z,5.13
2019-03-03T01:00:42.563Z,4.95
2019-03-03T01:03:26.192Z,4.82
2019-03-03T01:06:04.439Z,4.89
2019-03-03T01:08:50.330Z,5.02
2019-03-03T01:11:28.355Z,4.97
2019-03-03T01:13:57.657Z,4.83
2019-03-03T01:16:41.132Z,4.60
2019-03-03T01:19:09.409Z,4.80
2019-03-03T01:21:40.801Z,4.74
2019-03-03T01:24:15.049Z,4.94
2019-03-03T01:26:41.511Z,4.90
2019-03-03T01:29:07.943Z,4.93
2019-03-03T01:31:34.376Z,4.99
2019-03-03T01:34:00.913Z,4.75
2019-03-03T01:36:27.449Z,4.57
2019-03-03T01:38:53.882Z,4.72
2019-03-03T01:41:20.418Z,4.57
2019-03-03T01:43:46.852Z,4.57
2019-03-03T01:46:13.308Z,4.71
2019-03-03T01:48:39.821Z,4.78
2019-03-03T01:51:06.243Z,4.62
2019-03-03T01:53:32.688Z,4.72
2019-03-03T01:55:59.150Z,4.77
2019-03-03T01:58:25.661Z,4.84
2019-03-03T02:00:52.502Z,4.60
2019-03-03T02:03:18.934Z,4.71
2019-03-03T02:05:45.468Z,4.51
2019-03-03T02:08:12.006Z,4.58
2019-03-03T02:10:38.451Z,4.63
2019-03-03T02:13:05.076Z,4.53
2019-03-03T02:15:31.717Z,4.56
2019-03-03T02:17:58.234Z,4.58
2019-03-03T02:20:24.684Z,4.49
2019-03-03T02:22:51.529Z,4.49
2019-03-03T02:25:18.064Z,4.55
2019-03-03T02:27:44.501Z,4.61
2019-03-03T02:30:17.650Z,4.58
2019-03-03T02:32:44.227Z,4.47
2019-03-03T02:35:10.792Z,4.40
2019-03-03T02:37:37.299Z,4.46
2019-03-03T02:40:07.320Z,4.46
2019-03-03T02:42:33.749Z,4.40
2019-03-03T02:45:00.484Z,4.40
2019-03-03T02:47:26.924Z,4.53
2019-03-03T02:49:53.357Z,4.53
2019-03-03T02:52:19.797Z,4.26
2019-03-03T02:54:46.329Z,4.20
2019-03-03T02:57:12.967Z,4.33
2019-03-03T02:59:39.399Z,4.29
2019-03-03T03:02:07.631Z,4.33
2019-03-03T03:04:34.215Z,4.28
2019-03-03T03:07:08.709Z,4.33
2019-03-03T03:09:37.013Z,4.28
2019-03-03T03:12:23.318Z,4.28
2019-03-03T03:14:54.786Z,4.42
2019-03-03T03:17:32.056Z,4.25
2019-03-03T03:20:00.334Z,4.25
2019-03-03T03:22:31.723Z,4.20
2019-03-03T03:25:06.097Z,4.32
2019-03-03T03:27:37.344Z,4.52
2019-03-03T03:30:08.776Z,4.19
2019-03-03T03:32:37.074Z,4.25
2019-03-03T03:35:07.548Z,4.31
2019-03-03T03:37:35.865Z,4.37
2019-03-03T03:40:17.465Z,4.33
2019-03-03T03:42:45.743Z,4.29
2019-03-03T03:45:20.061Z,4.18
2019-03-03T03:47:51.327Z,4.02
2019-03-03T03:50:25.420Z,4.27
2019-03-03T03:52:53.699Z,4.19
2019-03-03T03:55:22.191Z,4.02
2019-03-03T03:57:56.729Z,4.09
2019-03-03T04:00:25.054Z,4.18
2019-03-03T04:03:02.473Z,4.06
2019-03-03T04:05:33.719Z,4.15
2019-03-03T04:08:01.994Z,4.21
2019-03-03T04:10:33.232Z,4.05
2019-03-03T04:13:10.487Z,3.94
2019-03-03T04:15:41.570Z,4.05
2019-03-03T04:18:09.855Z,3.90
2019-03-03T04:20:44.071Z,3.82
2019-03-03T04:23:18.245Z,3.88
2019-03-03T04:25:49.731Z,3.47
2019-03-03T04:28:21.173Z,3.58
2019-03-03T04:31:06.023Z,3.90
2019-03-03T04:33:52.346Z,3.99
2019-03-03T04:36:20.624Z,3.75
2019-03-03T04:38:51.971Z,3.71
2019-03-03T04:41:23.275Z,3.71
2019-03-03T04:43:57.845Z,3.20
2019-03-03T04:46:44.144Z,3.75
2019-03-03T04:49:28.907Z,3.97
2019-03-03T04:51:57.185Z,4.06
2019-03-03T04:54:28.450Z,4.21
2019-03-03T04:56:59.677Z,3.92
2019-03-03T04:59:34.103Z,3.92
2019-03-03T05:02:11.518Z,3.99
2019-03-03T05:04:42.736Z,3.99
2019-03-03T05:07:20.029Z,3.85
2019-03-03T05:10:05.095Z,3.86
2019-03-03T05:12:42.486Z,3.88
2019-03-03T05:15:24.075Z,3.92
2019-03-03T05:17:58.496Z,3.68
2019-03-03T05:20:25.031Z,3.65
2019-03-03T05:22:51.668Z,3.71
2019-03-03T05:25:18.246Z,3.82
2019-03-03T05:27:44.739Z,3.85
2019-03-03T05:30:12.811Z,3.66
2019-03-03T05:32:39.349Z,3.52
2019-03-03T05:35:07.107Z,3.65
2019-03-03T05:37:33.545Z,3.84
2019-03-03T05:39:59.978Z,3.76
2019-03-03T05:42:26.412Z,3.60
2019-03-03T05:44:52.948Z,3.83
2019-03-03T05:47:19.381Z,3.90
2019-03-03T05:49:45.874Z,3.74
2019-03-03T05:52:12.453Z,3.70
2019-03-03T05:54:38.989Z,3.55
2019-03-03T05:57:05.439Z,3.77
2019-03-03T05:59:31.959Z,3.73
2019-03-03T06:01:58.393Z,3.64
2019-03-03T06:04:24.929Z,3.78
2019-03-03T06:06:51.362Z,3.71
2019-03-03T06:09:17.797Z,3.76
2019-03-03T06:11:44.228Z,3.50
2019-03-03T06:14:10.662Z,3.44
2019-03-03T06:16:37.203Z,3.53
2019-03-03T06:19:03.631Z,3.52
2019-03-03T06:21:30.270Z,3.50
2019-03-03T06:23:56.809Z,3.74
2019-03-03T06:26:23.549Z,3.53
2019-03-03T06:28:50.084Z,3.59
2019-03-03T06:31:16.520Z,3.49
2019-03-03T06:33:42.953Z,3.35
2019-03-03T06:36:09.485Z,3.26
2019-03-03T06:38:36.022Z,3.09
2019-03-03T06:41:02.660Z,3.60
2019-03-03T06:43:29.196Z,3.46
2019-03-03T06:45:55.736Z,3.63
2019-03-03T06:48:22.166Z,3.72
2019-03-03T06:50:48.802Z,3.42
2019-03-03T06:53:15.543Z,3.17
2019-03-03T06:55:42.081Z,3.21
2019-03-03T06:58:08.513Z,3.67
2019-03-03T07:00:34.947Z,3.70
2019-03-03T07:03:01.487Z,3.38
2019-03-03T07:05:28.026Z,3.67
2019-03-03T07:07:54.456Z,4.10
2019-03-03T07:10:20.889Z,4.07
2019-03-03T07:12:47.322Z,4.15
2019-03-03T07:15:16.929Z,4.41
2019-03-03T07:17:43.463Z,4.65
2019-03-03T07:20:11.390Z,4.64
2019-03-03T07:22:37.868Z,4.72
2019-03-03T07:25:07.474Z,4.81
2019-03-03T07:27:34.329Z,4.46
2019-03-03T07:30:00.854Z,4.71
2019-03-03T07:32:27.290Z,4.84
2019-03-03T07:34:53.823Z,4.87
2019-03-03T07:37:20.483Z,4.89
2019-03-03T07:39:46.896Z,4.90
2019-03-03T07:42:13.351Z,5.00
2019-03-03T07:44:40.071Z,5.20
2019-03-03T07:47:06.711Z,5.29
2019-03-03T07:49:33.141Z,5.58
2019-03-03T07:52:01.631Z,5.55
2019-03-03T07:54:28.158Z,5.66
2019-03-03T07:56:54.799Z,5.77
2019-03-03T07:59:21.230Z,5.65
2019-03-03T08:01:47.971Z,5.59
2019-03-03T08:04:14.713Z,5.69
2019-03-03T08:06:41.352Z,5.81
2019-03-03T08:09:07.886Z,6.23
2019-03-03T08:11:34.422Z,6.49
2019-03-03T08:14:00.959Z,6.15
2019-03-03T08:16:27.499Z,6.31
2019-03-03T08:18:53.928Z,6.34
2019-03-03T08:21:20.362Z,6.29
2019-03-03T08:23:46.795Z,6.24
2019-03-03T08:26:13.329Z,6.18
2019-03-03T08:28:40.174Z,6.38
2019-03-03T08:31:06.607Z,6.59
2019-03-03T08:33:33.041Z,6.44
2019-03-03T08:35:59.584Z,6.45
2019-03-03T08:38:26.010Z,6.38
2019-03-03T08:40:52.448Z,6.37
2019-03-03T08:43:26.471Z,6.62
2019-03-03T08:45:54.733Z,6.71
2019-03-03T08:48:29.210Z,6.65
2019-03-03T08:51:15.734Z,6.83
2019-03-03T08:53:56.123Z,6.93
2019-03-03T08:56:30.131Z,6.90
2019-03-03T08:59:16.843Z,6.98
2019-03-03T09:01:45.116Z,6.98
2019-03-03T09:04:25.580Z,7.03
2019-03-03T09:07:10.631Z,7.14
2019-03-03T09:09:40.770Z,7.17
2019-03-03T09:12:23.895Z,7.18
2019-03-03T09:14:52.172Z,7.17
2019-03-03T09:17:26.737Z,7.01
2019-03-03T09:20:04.088Z,7.28
2019-03-03T09:22:41.482Z,7.32
2019-03-03T09:25:26.751Z,7.11
2019-03-03T09:28:13.317Z,7.25
2019-03-03T09:30:53.923Z,7.51
2019-03-03T09:33:40.225Z,7.64
2019-03-03T09:36:08.603Z,7.76
2019-03-03T09:38:39.617Z,7.75
2019-03-03T09:41:10.584Z,7.61
2019-03-03T09:43:48.176Z,7.70
2019-03-03T09:46:16.454Z,8.01
2019-03-03T09:48:53.845Z,7.79
2019-03-03T09:51:22.325Z,7.88
2019-03-03T09:54:05.976Z,8.11
2019-03-03T09:56:37.007Z,8.44
2019-03-03T09:59:14.088Z,8.65
2019-03-03T10:01:51.477Z,8.60
2019-03-03T10:04:36.235Z,8.55
2019-03-03T10:07:17.831Z,8.57
2019-03-03T10:09:55.119Z,8.71
2019-03-03T10:12:23.397Z,8.65
2019-03-03T10:14:51.676Z,8.66
2019-03-03T10:17:32.239Z,8.77
2019-03-03T10:20:00.520Z,8.68
2019-03-03T10:22:28.800Z,8.71
2019-03-03T10:25:10.039Z,9.07
2019-03-03T10:27:39.998Z,9.00
2019-03-03T10:30:12.156Z,8.79
2019-03-03T10:32:43.525Z,9.00
2019-03-03T10:35:15.774Z,8.93
2019-03-03T10:37:56.544Z,9.10
2019-03-03T10:40:24.822Z,9.19
2019-03-03T10:43:09.499Z,9.19
2019-03-03T10:45:40.933Z,9.29
2019-03-03T10:48:11.922Z,9.47
2019-03-03T10:50:57.045Z,9.39
2019-03-03T10:53:25.429Z,9.63
2019-03-03T10:56:10.545Z,9.48
2019-03-03T10:58:47.885Z,9.44
2019-03-03T11:01:25.176Z,9.71
2019-03-03T11:03:53.654Z,9.55
2019-03-03T11:06:30.944Z,9.58
2019-03-03T11:09:11.431Z,9.42
2019-03-03T11:11:49.102Z,9.45
2019-03-03T11:14:17.384Z,9.67
2019-03-03T11:16:54.872Z,10.13
2019-03-03T11:19:29.294Z,10.13
2019-03-03T11:22:15.900Z,10.20
2019-03-03T11:24:56.261Z,10.20
2019-03-03T11:27:36.722Z,11.00
2019-03-03T11:30:16.884Z,11.48
2019-03-03T11:32:45.361Z,11.05
2019-03-03T11:35:22.650Z,11.03
2019-03-03T11:38:07.704Z,10.92
2019-03-03T11:40:52.587Z,10.96
2019-03-03T11:43:23.620Z,10.96
2019-03-03T11:46:00.936Z,10.86
2019-03-03T11:48:33.803Z,10.81
2019-03-03T11:51:02.080Z,10.85
2019-03-03T11:53:36.514Z,11.16
2019-03-03T11:56:05.019Z,11.81
2019-03-03T11:58:42.474Z,11.34
2019-03-03T12:01:10.954Z,11.57
2019-03-03T12:03:52.544Z,11.22
2019-03-03T12:06:38.442Z,11.24
2019-03-03T12:09:14.084Z,11.37
2019-03-03T12:11:48.121Z,11.77
2019-03-03T12:14:33.265Z,11.81
2019-03-03T12:17:06.902Z,11.93
2019-03-03T12:19:35.144Z,11.83
2019-03-03T12:22:03.431Z,11.42
2019-03-03T12:24:47.160Z,11.63
2019-03-03T12:27:15.435Z,11.80
2019-03-03T12:29:55.694Z,11.70
2019-03-03T12:32:26.850Z,11.94
2019-03-03T12:34:57.882Z,11.51
2019-03-03T12:37:31.940Z,11.66
2019-03-03T12:40:16.610Z,11.55
2019-03-03T12:42:44.931Z,11.57
2019-03-03T12:45:13.316Z,11.53
2019-03-03T12:47:47.529Z,11.65
2019-03-03T12:50:28.495Z,11.48
2019-03-03T12:53:03.229Z,11.46
2019-03-03T12:55:31.607Z,11.64
2019-03-03T12:58:02.855Z,11.83
2019-03-03T13:00:37.151Z,11.87
2019-03-03T13:03:11.662Z,11.75
2019-03-03T13:05:48.880Z,11.98
2019-03-03T13:08:26.217Z,11.88
2019-03-03T13:11:00.739Z,11.97
2019-03-03T13:13:41.026Z,12.01
2019-03-03T13:16:15.166Z,12.35
2019-03-03T13:18:43.442Z,12.11
2019-03-03T13:21:27.080Z,12.23
2019-03-03T13:23:55.356Z,12.16
2019-03-03T13:26:23.633Z,12.29
2019-03-03T13:28:55.104Z,12.46
2019-03-03T13:31:42.103Z,12.93
2019-03-03T13:34:27.293Z,13.00
2019-03-03T13:36:55.551Z,13.19
2019-03-03T13:39:29.831Z,13.05
2019-03-03T13:41:58.150Z,13.28
2019-03-03T13:44:26.501Z,13.41
2019-03-03T13:46:52.964Z,13.53
2019-03-03T13:49:19.394Z,13.53
2019-03-03T13:51:45.838Z,13.36
2019-03-03T13:54:12.672Z,13.56
2019-03-03T13:56:39.311Z,13.30
2019-03-03T13:59:05.958Z,13.02
2019-03-03T14:01:32.692Z,12.91
2019-03-03T14:03:59.119Z,12.69
2019-03-03T14:06:25.654Z,12.68
2019-03-03T14:08:52.292Z,12.75
2019-03-03T14:11:28.967Z,12.91
2019-03-03T14:13:55.504Z,12.89
2019-03-03T14:16:22.041Z,12.73
2019-03-03T14:18:48.477Z,12.61
2019-03-03T14:21:14.913Z,12.55
2019-03-03T14:23:41.369Z,12.57
2019-03-03T14:26:07.990Z,12.51
2019-03-03T14:28:34.525Z,12.47
2019-03-03T14:31:01.049Z,12.62
2019-03-03T14:33:27.609Z,12.69
2019-03-03T14:35:54.120Z,12.82
2019-03-03T14:38:20.556Z,12.75
2019-03-03T14:40:47.194Z,12.82
2019-03-03T14:43:13.629Z,12.86
2019-03-03T14:45:40.163Z,12.96
2019-03-03T14:48:06.815Z,13.02
2019-03-03T14:50:33.667Z,13.14
2019-03-03T14:53:00.282Z,12.90
2019-03-03T14:55:26.921Z,13.12
2019-03-03T14:57:53.663Z,13.33
2019-03-03T15:00:27.080Z,13.46
2019-03-03T15:02:54.104Z,13.54
2019-03-03T15:05:21.155Z,13.47
2019-03-03T15:07:47.588Z,13.43
2019-03-03T15:10:14.125Z,13.56
2019-03-03T15:12:40.659Z,13.42
2019-03-03T15:15:10.474Z,13.53
2019-03-03T15:17:37.315Z,13.84
2019-03-03T15:20:05.739Z,14.18
2019-03-03T15:22:32.332Z,14.37
2019-03-03T15:24:58.868Z,14.83
2019-03-03T15:27:25.301Z,14.71
2019-03-03T15:29:51.838Z,14.91
2019-03-03T15:32:18.257Z,14.41
2019-03-03T15:34:45.114Z,14.16
2019-03-03T15:37:12.982Z,13.63
2019-03-03T15:39:39.807Z,13.49
2019-03-03T15:42:06.259Z,13.62
2019-03-03T15:44:33.517Z,13.52
2019-03-03T15:47:00.046Z,13.33
2019-03-03T15:49:26.583Z,13.42
2019-03-03T15:51:53.325Z,13.49
2019-03-03T15:54:19.760Z,13.30
2019-03-03T15:56:46.297Z,13.27
2019-03-03T15:59:12.730Z,13.24
2019-03-03T16:01:39.273Z,13.06
2019-03-03T16:04:05.698Z,13.06
2019-03-03T16:06:32.231Z,13.02
2019-03-03T16:08:58.665Z,12.91
2019-03-03T16:11:25.105Z,12.64
2019-03-03T16:13:51.534Z,12.80
2019-03-03T16:16:18.069Z,12.89
2019-03-03T16:18:45.134Z,12.80
2019-03-03T16:21:11.655Z,12.83
2019-03-03T16:23:38.090Z,12.65
2019-03-03T16:26:04.625Z,12.73
2019-03-03T16:28:31.055Z,12.72
2019-03-03T16:30:57.490Z,12.50
2019-03-03T16:33:24.692Z,12.42
2019-03-03T16:35:51.586Z,12.18
2019-03-03T16:38:18.020Z,12.29
2019-03-03T16:40:46.097Z,12.38
2019-03-03T16:43:12.832Z,12.47
2019-03-03T16:45:39.577Z,12.50
2019-03-03T16:48:06.418Z,12.66
2019-03-03T16:50:32.953Z,12.50
2019-03-03T16:52:59.694Z,12.41
2019-03-03T16:55:26.230Z,12.48
2019-03-03T16:57:52.775Z,12.44
2019-03-03T17:00:25.959Z,12.46
2019-03-03T17:02:52.389Z,12.16
2019-03-03T17:05:21.590Z,12.18
2019-03-03T17:07:48.023Z,12.07
2019-03-03T17:10:14.776Z,12.02
2019-03-03T17:12:41.298Z,11.94
2019-03-03T17:15:13.976Z,12.02
2019-03-03T17:17:40.727Z,11.88
2019-03-03T17:20:08.944Z,11.90
2019-03-03T17:22:35.841Z,11.87
2019-03-03T17:25:04.628Z,11.92
2019-03-03T17:27:31.167Z,11.84
2019-03-03T17:29:57.706Z,11.52
2019-03-03T17:32:24.439Z,11.65
2019-03-03T17:34:51.489Z,11.57
2019-03-03T17:37:18.230Z,11.37
2019-03-03T17:39:44.766Z,11.40
2019-03-03T17:42:11.301Z,11.48
2019-03-03T17:44:37.838Z,11.60
2019-03-03T17:47:04.374Z,11.67
2019-03-03T17:49:30.910Z,11.63
2019-03-03T17:51:57.447Z,11.47
2019-03-03T17:54:23.985Z,11.22
2019-03-03T17:56:50.521Z,11.14
2019-03-03T17:59:17.057Z,11.05
2019-03-03T18:01:43.496Z,10.85
2019-03-03T18:04:10.035Z,10.76
2019-03-03T18:06:38.945Z,10.63
2019-03-03T18:09:06.729Z,10.69
2019-03-03T18:11:33.320Z,10.70
2019-03-03T18:13:59.756Z,10.15
2019-03-03T18:16:26.389Z,10.32
2019-03-03T18:18:53.442Z,10.59
2019-03-03T18:21:20.999Z,10.53
2019-03-03T18:23:47.535Z,10.36
2019-03-03T18:26:13.986Z,10.18
2019-03-03T18:28:40.810Z,10.41
2019-03-03T18:31:07.347Z,10.32
2019-03-03T18:33:33.882Z,10.29
2019-03-03T18:36:00.522Z,10.32
2019-03-03T18:38:27.056Z,10.53
2019-03-03T18:40:53.593Z,10.54
2019-03-03T18:43:20.127Z,10.25
2019-03-03T18:45:46.664Z,10.75
2019-03-03T18:48:13.303Z,10.64
2019-03-03T18:50:39.840Z,10.44
2019-03-03T18:53:06.477Z,10.45
2019-03-03T18:55:32.932Z,10.20
2019-03-03T18:57:59.446Z,10.20
2019-03-03T19:00:27.774Z,10.05
2019-03-03T19:02:54.266Z,10.02
2019-03-03T19:05:21.000Z,10.23
2019-03-03T19:07:48.051Z,10.19
2019-03-03T19:10:19.651Z,10.03
2019-03-03T19:12:46.137Z,9.96
2019-03-03T19:15:14.927Z,9.91
2019-03-03T19:17:41.568Z,9.64
2019-03-03T19:20:10.972Z,9.81
2019-03-03T19:22:37.717Z,9.71
2019-03-03T19:25:08.517Z,9.71
2019-03-03T19:27:34.981Z,9.55
2019-03-03T19:30:01.823Z,9.55
2019-03-03T19:32:28.359Z,9.89
2019-03-03T19:34:54.999Z,9.60
2019-03-03T19:37:21.740Z,9.60
2019-03-03T19:39:48.172Z,9.72
2019-03-03T19:42:14.706Z,9.91
2019-03-03T19:44:41.243Z,10.07
2019-03-03T19:47:08.086Z,10.07
2019-03-03T19:49:34.523Z,9.98
2019-03-03T19:52:01.055Z,9.91
2019-03-03T19:54:27.796Z,9.91
2019-03-03T19:56:54.332Z,9.97
2019-03-03T19:59:21.178Z,9.75
2019-03-03T20:01:47.721Z,9.73
2019-03-03T20:04:14.248Z,9.74
2019-03-03T20:06:40.786Z,9.87
2019-03-03T20:09:07.936Z,9.40
2019-03-03T20:11:34.470Z,9.40
2019-03-03T20:14:01.213Z,9.43
2019-03-03T20:16:27.747Z,9.40
2019-03-03T20:18:54.283Z,9.36
2019-03-03T20:21:22.150Z,9.53
2019-03-03T20:23:48.586Z,9.28
2019-03-03T20:26:15.225Z,9.35
2019-03-03T20:28:41.757Z,9.24
2019-03-03T20:31:08.498Z,9.37
2019-03-03T20:33:35.036Z,9.45
2019-03-03T20:36:01.569Z,9.63
2019-03-03T20:38:29.539Z,9.49
2019-03-03T20:40:55.973Z,9.29
2019-03-03T20:43:24.253Z,9.43
2019-03-03T20:45:50.787Z,9.43
2019-03-03T20:48:17.339Z,9.43
2019-03-03T20:50:43.857Z,9.40
2019-03-03T20:53:10.501Z,9.23
2019-03-03T20:55:37.055Z,9.11
2019-03-03T20:58:03.773Z,9.08
2019-03-03T21:00:32.591Z,9.08
2019-03-03T21:02:59.646Z,9.02
2019-03-03T21:05:26.554Z,9.06
2019-03-03T21:07:53.480Z,9.09
2019-03-03T21:10:23.571Z,9.13
2019-03-03T21:12:50.122Z,9.14
2019-03-03T21:15:16.710Z,9.02
2019-03-03T21:17:43.235Z,8.94
2019-03-03T21:20:13.347Z,8.99
2019-03-03T21:22:39.888Z,8.73
2019-03-03T21:25:08.982Z,8.91
2019-03-03T21:27:37.257Z,8.90
2019-03-03T21:30:07.347Z,8.77
2019-03-03T21:32:33.811Z,8.66
2019-03-03T21:35:00.347Z,8.75
2019-03-03T21:37:27.087Z,8.70
2019-03-03T21:39:53.829Z,8.64
2019-03-03T21:42:20.263Z,8.60
2019-03-03T21:44:46.905Z,8.72
2019-03-03T21:47:13.333Z,8.72
2019-03-03T21:49:39.769Z,8.75
2019-03-03T21:52:06.306Z,8.65
2019-03-03T21:54:32.839Z,8.62
2019-03-03T21:56:59.376Z,8.59
2019-03-03T21:59:25.810Z,8.64
2019-03-03T22:01:52.346Z,8.57
2019-03-03T22:04:19.906Z,8.45
2019-03-03T22:06:46.441Z,8.64
2019-03-03T22:09:13.389Z,8.56
2019-03-03T22:11:39.925Z,8.67
2019-03-03T22:14:06.358Z,8.70
2019-03-03T22:16:32.896Z,8.70
2019-03-03T22:18:59.329Z,8.72
2019-03-03T22:21:25.749Z,8.58
2019-03-03T22:23:52.470Z,8.75
2019-03-03T22:26:18.958Z,8.59
2019-03-03T22:28:45.391Z,8.39
2019-03-03T22:31:11.819Z,8.39
2019-03-03T22:33:38.314Z,8.39
2019-03-03T22:36:04.878Z,8.30
2019-03-03T22:38:31.410Z,8.40
2019-03-03T22:40:57.946Z,8.37
2019-03-03T22:43:24.379Z,8.42
2019-03-03T22:45:50.915Z,8.38
2019-03-03T22:48:17.347Z,8.44
2019-03-03T22:50:43.780Z,8.46
2019-03-03T22:53:10.420Z,8.43
2019-03-03T22:55:37.468Z,8.37
2019-03-03T22:58:03.904Z,8.29
2019-03-03T23:00:53.178Z,8.27
2019-03-03T23:03:35.168Z,8.32
2019-03-03T23:06:14.192Z,8.34
2019-03-03T23:08:59.679Z,8.36
2019-03-03T23:11:41.882Z,8.43
2019-03-03T23:14:14.665Z,8.39
2019-03-03T23:16:56.767Z,8.70
2019-03-03T23:19:42.038Z,8.64
2019-03-03T23:22:27.415Z,8.62
2019-03-03T23:25:27.847Z,8.67
2019-03-03T23:27:54.279Z,8.36
2019-03-03T23:30:20.714Z,8.38
2019-03-03T23:32:47.147Z,8.42
2019-03-03T23:35:13.890Z,8.62
2019-03-03T23:37:40.320Z,8.65
2019-03-03T23:40:06.961Z,8.50
2019-03-03T23:42:33.597Z,8.58
2019-03-03T23:45:00.295Z,8.66
2019-03-03T23:47:26.771Z,8.49
2019-03-03T23:49:53.205Z,8.57
2019-03-03T23:52:19.639Z,8.64
2019-03-03T23:54:46.176Z,8.60
2019-03-03T23:57:12.608Z,8.87
2019-03-03T23:59:39.042Z,8.72
